sensor_id;sensor_type;location;lat;lon;timestamp;P1;durP1;ratioP1;P2;durP2;ratioP2
16922;SDS011;8578;50.938;13.556;2022-08-19T00:00:18;23.93;;;16.53;;
16922;SDS011;8578;50.938;13.556;2022-08-19T00:02:46;24.03;;;16.67;;
16922;SDS011;8578;50.938;13.556;2022-08-19T00:05:15;21.90;;;16.40;;
16922;SDS011;8578;50.938;13.556;2022-08-19T00:07:43;23.67;;;16.80;;
16922;SDS011;8578;50.938;13.556;2022-08-19T00:10:12;23.67;;;16.07;;
16922;SDS011;8578;50.938;13.556;2022-08-19T00:12:40;22.43;;;16.67;;
16922;SDS011;8578;50.938;13.556;2022-08-19T00:15:13;24.50;;;17.57;;
16922;SDS011;8578;50.938;13.556;2022-08-19T00:17:41;24.83;;;17.80;;
16922;SDS011;8578;50.938;13.556;2022-08-19T00:20:09;24.20;;;16.97;;
16922;SDS011;8578;50.938;13.556;2022-08-19T00:22:38;22.67;;;17.13;;
16922;SDS011;8578;50.938;13.556;2022-08-19T00:25:07;24.17;;;17.40;;
16922;SDS011;8578;50.938;13.556;2022-08-19T00:27:36;26.77;;;18.23;;
16922;SDS011;8578;50.938;13.556;2022-08-19T00:30:04;23.17;;;17.27;;
16922;SDS011;8578;50.938;13.556;2022-08-19T00:32:32;20.27;;;16.50;;
16922;SDS011;8578;50.938;13.556;2022-08-19T00:35:00;22.50;;;16.07;;
16922;SDS011;8578;50.938;13.556;2022-08-19T00:37:28;24.13;;;17.80;;
16922;SDS011;8578;50.938;13.556;2022-08-19T00:39:55;22.97;;;16.83;;
16922;SDS011;8578;50.938;13.556;2022-08-19T00:42:23;23.80;;;18.40;;
16922;SDS011;8578;50.938;13.556;2022-08-19T00:44:55;25.53;;;18.50;;
16922;SDS011;8578;50.938;13.556;2022-08-19T00:47:23;25.20;;;18.83;;
16922;SDS011;8578;50.938;13.556;2022-08-19T00:49:51;28.30;;;19.30;;
16922;SDS011;8578;50.938;13.556;2022-08-19T00:52:21;22.50;;;18.30;;
16922;SDS011;8578;50.938;13.556;2022-08-19T00:54:49;25.10;;;18.00;;
16922;SDS011;8578;50.938;13.556;2022-08-19T00:57:19;26.30;;;18.57;;
16922;SDS011;8578;50.938;13.556;2022-08-19T00:59:50;23.03;;;18.13;;
16922;SDS011;8578;50.938;13.556;2022-08-19T01:02:29;21.27;;;17.57;;
16922;SDS011;8578;50.938;13.556;2022-08-19T01:04:57;23.20;;;17.13;;
16922;SDS011;8578;50.938;13.556;2022-08-19T01:07:25;24.10;;;17.13;;
16922;SDS011;8578;50.938;13.556;2022-08-19T01:09:52;21.63;;;17.43;;
16922;SDS011;8578;50.938;13.556;2022-08-19T01:12:20;22.43;;;18.23;;
16922;SDS011;8578;50.938;13.556;2022-08-19T01:14:48;24.30;;;17.53;;
16922;SDS011;8578;50.938;13.556;2022-08-19T01:17:16;22.87;;;16.57;;
16922;SDS011;8578;50.938;13.556;2022-08-19T01:19:46;24.23;;;16.73;;
16922;SDS011;8578;50.938;13.556;2022-08-19T01:22:14;21.13;;;17.23;;
16922;SDS011;8578;50.938;13.556;2022-08-19T01:24:54;23.57;;;17.20;;
16922;SDS011;8578;50.938;13.556;2022-08-19T01:27:21;23.47;;;16.47;;
16922;SDS011;8578;50.938;13.556;2022-08-19T01:29:49;25.80;;;17.53;;
16922;SDS011;8578;50.938;13.556;2022-08-19T01:32:17;21.33;;;16.33;;
16922;SDS011;8578;50.938;13.556;2022-08-19T01:34:59;23.50;;;17.10;;
16922;SDS011;8578;50.938;13.556;2022-08-19T01:37:28;22.27;;;17.30;;
16922;SDS011;8578;50.938;13.556;2022-08-19T01:39:58;24.07;;;17.83;;
16922;SDS011;8578;50.938;13.556;2022-08-19T01:42:25;23.07;;;17.43;;
16922;SDS011;8578;50.938;13.556;2022-08-19T01:44:55;21.33;;;16.77;;
16922;SDS011;8578;50.938;13.556;2022-08-19T01:47:22;22.33;;;17.10;;
16922;SDS011;8578;50.938;13.556;2022-08-19T01:49:50;21.20;;;16.53;;
16922;SDS011;8578;50.938;13.556;2022-08-19T01:52:17;21.93;;;16.83;;
16922;SDS011;8578;50.938;13.556;2022-08-19T01:54:45;21.77;;;16.10;;
16922;SDS011;8578;50.938;13.556;2022-08-19T01:57:15;21.33;;;17.37;;
16922;SDS011;8578;50.938;13.556;2022-08-19T01:59:43;23.53;;;18.00;;
16922;SDS011;8578;50.938;13.556;2022-08-19T02:02:11;21.33;;;16.50;;
16922;SDS011;8578;50.938;13.556;2022-08-19T02:04:39;21.57;;;16.50;;
16922;SDS011;8578;50.938;13.556;2022-08-19T02:07:07;19.63;;;16.07;;
16922;SDS011;8578;50.938;13.556;2022-08-19T02:09:35;22.00;;;16.70;;
16922;SDS011;8578;50.938;13.556;2022-08-19T02:12:02;20.47;;;15.20;;
16922;SDS011;8578;50.938;13.556;2022-08-19T02:14:31;22.20;;;16.87;;
16922;SDS011;8578;50.938;13.556;2022-08-19T02:17:00;22.73;;;16.93;;
16922;SDS011;8578;50.938;13.556;2022-08-19T02:19:28;20.57;;;17.17;;
16922;SDS011;8578;50.938;13.556;2022-08-19T02:21:56;21.47;;;16.70;;
16922;SDS011;8578;50.938;13.556;2022-08-19T02:24:23;21.63;;;16.07;;
16922;SDS011;8578;50.938;13.556;2022-08-19T02:26:51;20.47;;;16.90;;
16922;SDS011;8578;50.938;13.556;2022-08-19T02:29:18;22.40;;;17.20;;
16922;SDS011;8578;50.938;13.556;2022-08-19T02:31:47;22.03;;;16.87;;
16922;SDS011;8578;50.938;13.556;2022-08-19T02:34:15;22.00;;;17.33;;
16922;SDS011;8578;50.938;13.556;2022-08-19T02:36:42;22.17;;;16.97;;
16922;SDS011;8578;50.938;13.556;2022-08-19T02:39:17;23.23;;;17.00;;
16922;SDS011;8578;50.938;13.556;2022-08-19T02:41:43;20.63;;;16.90;;
16922;SDS011;8578;50.938;13.556;2022-08-19T02:44:11;20.73;;;17.27;;
16922;SDS011;8578;50.938;13.556;2022-08-19T02:46:58;21.00;;;16.87;;
16922;SDS011;8578;50.938;13.556;2022-08-19T02:49:25;23.10;;;16.67;;
16922;SDS011;8578;50.938;13.556;2022-08-19T02:51:53;24.67;;;17.20;;
16922;SDS011;8578;50.938;13.556;2022-08-19T02:54:20;20.23;;;16.57;;
16922;SDS011;8578;50.938;13.556;2022-08-19T02:56:48;23.83;;;17.53;;
16922;SDS011;8578;50.938;13.556;2022-08-19T02:59:15;22.10;;;16.70;;
16922;SDS011;8578;50.938;13.556;2022-08-19T03:01:46;22.77;;;17.27;;
16922;SDS011;8578;50.938;13.556;2022-08-19T03:04:15;22.50;;;17.37;;
16922;SDS011;8578;50.938;13.556;2022-08-19T03:06:44;22.93;;;18.27;;
16922;SDS011;8578;50.938;13.556;2022-08-19T03:09:11;22.47;;;17.27;;
16922;SDS011;8578;50.938;13.556;2022-08-19T03:11:39;22.83;;;17.57;;
16922;SDS011;8578;50.938;13.556;2022-08-19T03:14:07;24.27;;;17.87;;
16922;SDS011;8578;50.938;13.556;2022-08-19T03:16:40;26.60;;;18.17;;
16922;SDS011;8578;50.938;13.556;2022-08-19T03:19:08;23.60;;;18.57;;
16922;SDS011;8578;50.938;13.556;2022-08-19T03:21:37;22.77;;;18.10;;
16922;SDS011;8578;50.938;13.556;2022-08-19T03:24:05;20.50;;;18.03;;
16922;SDS011;8578;50.938;13.556;2022-08-19T03:26:33;26.43;;;18.77;;
16922;SDS011;8578;50.938;13.556;2022-08-19T03:29:01;23.27;;;18.73;;
16922;SDS011;8578;50.938;13.556;2022-08-19T03:31:30;24.27;;;18.77;;
16922;SDS011;8578;50.938;13.556;2022-08-19T03:34:18;23.07;;;17.40;;
16922;SDS011;8578;50.938;13.556;2022-08-19T03:36:47;25.33;;;18.40;;
16922;SDS011;8578;50.938;13.556;2022-08-19T03:39:15;25.50;;;18.40;;
16922;SDS011;8578;50.938;13.556;2022-08-19T03:41:43;23.70;;;18.13;;
16922;SDS011;8578;50.938;13.556;2022-08-19T03:44:14;22.93;;;18.37;;
16922;SDS011;8578;50.938;13.556;2022-08-19T03:46:44;21.17;;;17.80;;
16922;SDS011;8578;50.938;13.556;2022-08-19T03:49:12;24.67;;;18.50;;
16922;SDS011;8578;50.938;13.556;2022-08-19T03:51:40;27.30;;;19.27;;
16922;SDS011;8578;50.938;13.556;2022-08-19T03:54:10;23.80;;;18.63;;
16922;SDS011;8578;50.938;13.556;2022-08-19T03:56:38;24.43;;;18.97;;
16922;SDS011;8578;50.938;13.556;2022-08-19T03:59:07;27.23;;;19.20;;
16922;SDS011;8578;50.938;13.556;2022-08-19T04:01:35;24.63;;;19.23;;
16922;SDS011;8578;50.938;13.556;2022-08-19T04:04:03;28.07;;;19.43;;
16922;SDS011;8578;50.938;13.556;2022-08-19T04:06:31;23.93;;;18.60;;
16922;SDS011;8578;50.938;13.556;2022-08-19T04:08:59;23.97;;;18.77;;
16922;SDS011;8578;50.938;13.556;2022-08-19T04:11:30;23.20;;;17.53;;
16922;SDS011;8578;50.938;13.556;2022-08-19T04:14:09;23.33;;;17.93;;
16922;SDS011;8578;50.938;13.556;2022-08-19T04:16:36;22.13;;;18.23;;
16922;SDS011;8578;50.938;13.556;2022-08-19T04:19:04;30.57;;;19.53;;
16922;SDS011;8578;50.938;13.556;2022-08-19T04:21:32;27.37;;;19.27;;
16922;SDS011;8578;50.938;13.556;2022-08-19T04:24:00;23.50;;;18.63;;
16922;SDS011;8578;50.938;13.556;2022-08-19T04:26:31;24.90;;;18.73;;
16922;SDS011;8578;50.938;13.556;2022-08-19T04:29:00;26.80;;;18.97;;
16922;SDS011;8578;50.938;13.556;2022-08-19T04:31:29;27.63;;;19.67;;
16922;SDS011;8578;50.938;13.556;2022-08-19T04:33:58;26.80;;;18.93;;
16922;SDS011;8578;50.938;13.556;2022-08-19T04:36:27;24.70;;;18.23;;
16922;SDS011;8578;50.938;13.556;2022-08-19T04:38:56;26.23;;;18.67;;
16922;SDS011;8578;50.938;13.556;2022-08-19T04:41:24;25.47;;;19.47;;
16922;SDS011;8578;50.938;13.556;2022-08-19T04:44:10;25.57;;;19.20;;
16922;SDS011;8578;50.938;13.556;2022-08-19T04:46:38;25.97;;;20.30;;
16922;SDS011;8578;50.938;13.556;2022-08-19T04:49:18;24.30;;;18.10;;
16922;SDS011;8578;50.938;13.556;2022-08-19T04:51:46;24.57;;;18.63;;
16922;SDS011;8578;50.938;13.556;2022-08-19T04:54:14;25.63;;;19.13;;
16922;SDS011;8578;50.938;13.556;2022-08-19T04:57:02;21.93;;;18.03;;
16922;SDS011;8578;50.938;13.556;2022-08-19T04:59:33;22.30;;;17.40;;
16922;SDS011;8578;50.938;13.556;2022-08-19T05:02:01;24.63;;;18.37;;
16922;SDS011;8578;50.938;13.556;2022-08-19T05:04:29;24.70;;;17.60;;
16922;SDS011;8578;50.938;13.556;2022-08-19T05:06:58;23.77;;;17.27;;
16922;SDS011;8578;50.938;13.556;2022-08-19T05:09:27;26.50;;;18.20;;
16922;SDS011;8578;50.938;13.556;2022-08-19T05:12:15;24.37;;;17.80;;
16922;SDS011;8578;50.938;13.556;2022-08-19T05:14:44;23.10;;;17.43;;
16922;SDS011;8578;50.938;13.556;2022-08-19T05:17:13;22.47;;;16.63;;
16922;SDS011;8578;50.938;13.556;2022-08-19T05:20:01;22.90;;;15.97;;
16922;SDS011;8578;50.938;13.556;2022-08-19T05:22:46;20.83;;;15.17;;
16922;SDS011;8578;50.938;13.556;2022-08-19T05:25:15;20.40;;;15.73;;
16922;SDS011;8578;50.938;13.556;2022-08-19T05:27:44;18.03;;;14.43;;
16922;SDS011;8578;50.938;13.556;2022-08-19T05:30:13;21.27;;;15.97;;
16922;SDS011;8578;50.938;13.556;2022-08-19T05:32:41;18.73;;;14.40;;
16922;SDS011;8578;50.938;13.556;2022-08-19T05:35:09;20.33;;;14.67;;
16922;SDS011;8578;50.938;13.556;2022-08-19T05:37:37;19.63;;;14.67;;
16922;SDS011;8578;50.938;13.556;2022-08-19T05:40:07;20.77;;;15.13;;
16922;SDS011;8578;50.938;13.556;2022-08-19T05:42:35;20.53;;;14.27;;
16922;SDS011;8578;50.938;13.556;2022-08-19T05:45:02;17.00;;;13.63;;
16922;SDS011;8578;50.938;13.556;2022-08-19T05:47:32;16.57;;;13.90;;
16922;SDS011;8578;50.938;13.556;2022-08-19T05:49:59;17.30;;;13.20;;
16922;SDS011;8578;50.938;13.556;2022-08-19T05:52:30;16.43;;;12.63;;
16922;SDS011;8578;50.938;13.556;2022-08-19T05:54:58;14.07;;;11.43;;
16922;SDS011;8578;50.938;13.556;2022-08-19T05:57:26;15.10;;;11.70;;
16922;SDS011;8578;50.938;13.556;2022-08-19T05:59:55;13.43;;;11.57;;
16922;SDS011;8578;50.938;13.556;2022-08-19T06:02:24;14.60;;;11.70;;
16922;SDS011;8578;50.938;13.556;2022-08-19T06:04:53;14.87;;;11.33;;
16922;SDS011;8578;50.938;13.556;2022-08-19T06:07:20;12.80;;;10.13;;
16922;SDS011;8578;50.938;13.556;2022-08-19T06:09:48;12.87;;;11.07;;
16922;SDS011;8578;50.938;13.556;2022-08-19T06:12:26;14.80;;;12.00;;
16922;SDS011;8578;50.938;13.556;2022-08-19T06:14:56;15.80;;;12.13;;
16922;SDS011;8578;50.938;13.556;2022-08-19T06:17:26;15.17;;;11.03;;
16922;SDS011;8578;50.938;13.556;2022-08-19T06:19:55;13.87;;;11.67;;
16922;SDS011;8578;50.938;13.556;2022-08-19T06:22:22;13.67;;;10.80;;
16922;SDS011;8578;50.938;13.556;2022-08-19T06:24:50;12.30;;;11.00;;
16922;SDS011;8578;50.938;13.556;2022-08-19T06:27:18;16.13;;;12.00;;
16922;SDS011;8578;50.938;13.556;2022-08-19T06:29:46;16.53;;;12.03;;
16922;SDS011;8578;50.938;13.556;2022-08-19T06:32:14;15.60;;;11.13;;
16922;SDS011;8578;50.938;13.556;2022-08-19T06:34:42;14.37;;;10.87;;
16922;SDS011;8578;50.938;13.556;2022-08-19T06:37:12;13.80;;;10.67;;
16922;SDS011;8578;50.938;13.556;2022-08-19T06:39:40;15.30;;;10.63;;
16922;SDS011;8578;50.938;13.556;2022-08-19T06:42:09;13.27;;;9.87;;
16922;SDS011;8578;50.938;13.556;2022-08-19T06:44:39;14.70;;;10.90;;
16922;SDS011;8578;50.938;13.556;2022-08-19T06:47:09;14.10;;;11.73;;
16922;SDS011;8578;50.938;13.556;2022-08-19T06:49:48;13.90;;;11.47;;
16922;SDS011;8578;50.938;13.556;2022-08-19T06:52:17;19.73;;;12.10;;
16922;SDS011;8578;50.938;13.556;2022-08-19T06:54:44;14.37;;;10.97;;
16922;SDS011;8578;50.938;13.556;2022-08-19T06:57:22;15.30;;;11.73;;
16922;SDS011;8578;50.938;13.556;2022-08-19T06:59:49;16.57;;;12.13;;
16922;SDS011;8578;50.938;13.556;2022-08-19T07:02:17;16.27;;;12.87;;
16922;SDS011;8578;50.938;13.556;2022-08-19T07:04:45;18.53;;;13.17;;
16922;SDS011;8578;50.938;13.556;2022-08-19T07:07:19;15.83;;;11.30;;
16922;SDS011;8578;50.938;13.556;2022-08-19T07:09:48;16.33;;;11.97;;
16922;SDS011;8578;50.938;13.556;2022-08-19T07:12:26;17.17;;;13.33;;
16922;SDS011;8578;50.938;13.556;2022-08-19T07:14:55;18.27;;;13.17;;
16922;SDS011;8578;50.938;13.556;2022-08-19T07:17:23;19.10;;;12.97;;
16922;SDS011;8578;50.938;13.556;2022-08-19T07:19:51;16.83;;;12.73;;
16922;SDS011;8578;50.938;13.556;2022-08-19T07:22:21;16.43;;;12.33;;
16922;SDS011;8578;50.938;13.556;2022-08-19T07:24:49;18.50;;;13.20;;
16922;SDS011;8578;50.938;13.556;2022-08-19T07:27:17;17.73;;;12.70;;
16922;SDS011;8578;50.938;13.556;2022-08-19T07:29:50;19.27;;;13.27;;
16922;SDS011;8578;50.938;13.556;2022-08-19T07:32:22;19.83;;;13.57;;
16922;SDS011;8578;50.938;13.556;2022-08-19T07:34:52;20.40;;;13.97;;
16922;SDS011;8578;50.938;13.556;2022-08-19T07:37:20;19.90;;;13.90;;
16922;SDS011;8578;50.938;13.556;2022-08-19T07:39:48;17.50;;;11.77;;
16922;SDS011;8578;50.938;13.556;2022-08-19T07:42:15;18.50;;;12.20;;
16922;SDS011;8578;50.938;13.556;2022-08-19T07:44:44;17.10;;;10.77;;
16922;SDS011;8578;50.938;13.556;2022-08-19T07:47:16;16.63;;;10.80;;
16922;SDS011;8578;50.938;13.556;2022-08-19T07:50:05;14.33;;;10.97;;
16922;SDS011;8578;50.938;13.556;2022-08-19T07:52:34;15.37;;;11.23;;
16922;SDS011;8578;50.938;13.556;2022-08-19T07:55:05;16.67;;;11.10;;
16922;SDS011;8578;50.938;13.556;2022-08-19T07:57:53;15.40;;;10.97;;
16922;SDS011;8578;50.938;13.556;2022-08-19T08:00:20;16.40;;;11.13;;
16922;SDS011;8578;50.938;13.556;2022-08-19T08:02:50;16.80;;;11.60;;
16922;SDS011;8578;50.938;13.556;2022-08-19T08:05:20;16.37;;;11.87;;
16922;SDS011;8578;50.938;13.556;2022-08-19T08:08:10;17.90;;;12.97;;
16922;SDS011;8578;50.938;13.556;2022-08-19T08:10:55;19.87;;;13.53;;
16922;SDS011;8578;50.938;13.556;2022-08-19T08:13:23;20.27;;;14.37;;
16922;SDS011;8578;50.938;13.556;2022-08-19T08:15:51;21.57;;;14.93;;
16922;SDS011;8578;50.938;13.556;2022-08-19T08:18:21;20.40;;;14.00;;
16922;SDS011;8578;50.938;13.556;2022-08-19T08:20:56;20.00;;;13.73;;
16922;SDS011;8578;50.938;13.556;2022-08-19T08:23:25;24.03;;;14.90;;
16922;SDS011;8578;50.938;13.556;2022-08-19T08:25:53;23.37;;;15.50;;
16922;SDS011;8578;50.938;13.556;2022-08-19T08:28:23;24.27;;;15.63;;
16922;SDS011;8578;50.938;13.556;2022-08-19T08:30:55;23.20;;;14.90;;
16922;SDS011;8578;50.938;13.556;2022-08-19T08:33:24;24.33;;;15.90;;
16922;SDS011;8578;50.938;13.556;2022-08-19T08:36:00;22.03;;;15.60;;
16922;SDS011;8578;50.938;13.556;2022-08-19T08:38:30;24.03;;;16.33;;
16922;SDS011;8578;50.938;13.556;2022-08-19T08:41:05;22.13;;;15.73;;
16922;SDS011;8578;50.938;13.556;2022-08-19T08:43:35;21.50;;;14.40;;
16922;SDS011;8578;50.938;13.556;2022-08-19T08:46:04;19.63;;;13.73;;
16922;SDS011;8578;50.938;13.556;2022-08-19T08:48:37;17.17;;;12.83;;
16922;SDS011;8578;50.938;13.556;2022-08-19T08:51:07;14.90;;;12.00;;
16922;SDS011;8578;50.938;13.556;2022-08-19T08:53:37;17.90;;;12.63;;
16922;SDS011;8578;50.938;13.556;2022-08-19T08:56:08;16.20;;;12.60;;
16922;SDS011;8578;50.938;13.556;2022-08-19T08:58:47;14.37;;;11.57;;
16922;SDS011;8578;50.938;13.556;2022-08-19T09:01:20;17.83;;;11.70;;
16922;SDS011;8578;50.938;13.556;2022-08-19T09:03:48;16.53;;;11.70;;
16922;SDS011;8578;50.938;13.556;2022-08-19T09:06:18;15.43;;;11.80;;
16922;SDS011;8578;50.938;13.556;2022-08-19T09:08:54;15.20;;;11.13;;
16922;SDS011;8578;50.938;13.556;2022-08-19T09:11:39;15.60;;;11.83;;
16922;SDS011;8578;50.938;13.556;2022-08-19T09:14:11;13.27;;;10.63;;
16922;SDS011;8578;50.938;13.556;2022-08-19T09:17:00;13.77;;;10.33;;
16922;SDS011;8578;50.938;13.556;2022-08-19T09:19:29;13.33;;;10.90;;
16922;SDS011;8578;50.938;13.556;2022-08-19T09:21:58;14.93;;;10.67;;
16922;SDS011;8578;50.938;13.556;2022-08-19T09:24:28;13.27;;;10.83;;
16922;SDS011;8578;50.938;13.556;2022-08-19T09:26:56;11.57;;;8.63;;
16922;SDS011;8578;50.938;13.556;2022-08-19T09:29:24;12.13;;;9.47;;
16922;SDS011;8578;50.938;13.556;2022-08-19T09:31:51;11.10;;;8.77;;
16922;SDS011;8578;50.938;13.556;2022-08-19T09:34:19;9.73;;;8.30;;
16922;SDS011;8578;50.938;13.556;2022-08-19T09:36:47;11.57;;;8.40;;
16922;SDS011;8578;50.938;13.556;2022-08-19T09:39:20;9.87;;;7.97;;
16922;SDS011;8578;50.938;13.556;2022-08-19T09:41:49;11.03;;;8.27;;
16922;SDS011;8578;50.938;13.556;2022-08-19T09:44:17;10.17;;;8.53;;
16922;SDS011;8578;50.938;13.556;2022-08-19T09:46:47;10.63;;;8.03;;
16922;SDS011;8578;50.938;13.556;2022-08-19T09:49:14;10.93;;;7.90;;
16922;SDS011;8578;50.938;13.556;2022-08-19T09:51:44;10.37;;;8.30;;
16922;SDS011;8578;50.938;13.556;2022-08-19T09:54:17;9.17;;;7.87;;
16922;SDS011;8578;50.938;13.556;2022-08-19T09:56:52;9.53;;;7.83;;
16922;SDS011;8578;50.938;13.556;2022-08-19T09:59:19;10.50;;;8.20;;
16922;SDS011;8578;50.938;13.556;2022-08-19T10:01:47;9.57;;;7.83;;
16922;SDS011;8578;50.938;13.556;2022-08-19T10:04:15;9.27;;;8.23;;
16922;SDS011;8578;50.938;13.556;2022-08-19T10:06:48;9.20;;;7.57;;
16922;SDS011;8578;50.938;13.556;2022-08-19T10:09:19;8.13;;;7.13;;
16922;SDS011;8578;50.938;13.556;2022-08-19T10:12:01;9.17;;;7.10;;
16922;SDS011;8578;50.938;13.556;2022-08-19T10:14:29;6.30;;;4.90;;
16922;SDS011;8578;50.938;13.556;2022-08-19T10:16:56;4.93;;;3.47;;
16922;SDS011;8578;50.938;13.556;2022-08-19T10:19:26;3.80;;;3.30;;
16922;SDS011;8578;50.938;13.556;2022-08-19T10:21:58;3.73;;;3.10;;
16922;SDS011;8578;50.938;13.556;2022-08-19T10:24:26;3.40;;;2.83;;
16922;SDS011;8578;50.938;13.556;2022-08-19T10:26:55;5.80;;;3.10;;
16922;SDS011;8578;50.938;13.556;2022-08-19T10:29:26;2.60;;;2.40;;
16922;SDS011;8578;50.938;13.556;2022-08-19T10:31:58;2.57;;;2.37;;
16922;SDS011;8578;50.938;13.556;2022-08-19T10:34:28;3.03;;;2.13;;
16922;SDS011;8578;50.938;13.556;2022-08-19T10:36:56;2.47;;;1.83;;
16922;SDS011;8578;50.938;13.556;2022-08-19T10:39:27;2.13;;;1.93;;
16922;SDS011;8578;50.938;13.556;2022-08-19T10:41:56;3.27;;;1.90;;
16922;SDS011;8578;50.938;13.556;2022-08-19T10:44:24;1.70;;;1.50;;
16922;SDS011;8578;50.938;13.556;2022-08-19T10:46:59;1.93;;;1.73;;
16922;SDS011;8578;50.938;13.556;2022-08-19T10:49:26;2.03;;;1.90;;
16922;SDS011;8578;50.938;13.556;2022-08-19T10:51:54;2.20;;;1.63;;
16922;SDS011;8578;50.938;13.556;2022-08-19T10:54:44;3.30;;;1.70;;
16922;SDS011;8578;50.938;13.556;2022-08-19T10:57:34;2.37;;;2.00;;
16922;SDS011;8578;50.938;13.556;2022-08-19T11:00:21;2.07;;;1.90;;
16922;SDS011;8578;50.938;13.556;2022-08-19T11:02:50;2.70;;;1.87;;
16922;SDS011;8578;50.938;13.556;2022-08-19T11:05:18;2.13;;;1.93;;
16922;SDS011;8578;50.938;13.556;2022-08-19T11:07:49;2.03;;;1.83;;
16922;SDS011;8578;50.938;13.556;2022-08-19T11:10:19;1.90;;;1.80;;
16922;SDS011;8578;50.938;13.556;2022-08-19T11:12:48;1.60;;;1.50;;
16922;SDS011;8578;50.938;13.556;2022-08-19T11:15:20;1.90;;;1.80;;
16922;SDS011;8578;50.938;13.556;2022-08-19T11:17:48;1.90;;;1.80;;
16922;SDS011;8578;50.938;13.556;2022-08-19T11:20:18;2.67;;;1.70;;
16922;SDS011;8578;50.938;13.556;2022-08-19T11:22:45;2.20;;;2.00;;
16922;SDS011;8578;50.938;13.556;2022-08-19T11:25:13;2.97;;;2.33;;
16922;SDS011;8578;50.938;13.556;2022-08-19T11:27:41;3.23;;;2.43;;
16922;SDS011;8578;50.938;13.556;2022-08-19T11:30:10;2.73;;;2.43;;
16922;SDS011;8578;50.938;13.556;2022-08-19T11:32:39;3.53;;;2.90;;
16922;SDS011;8578;50.938;13.556;2022-08-19T11:35:13;2.97;;;2.77;;
16922;SDS011;8578;50.938;13.556;2022-08-19T11:37:43;3.70;;;3.30;;
16922;SDS011;8578;50.938;13.556;2022-08-19T11:40:11;4.80;;;3.93;;
16922;SDS011;8578;50.938;13.556;2022-08-19T11:42:41;4.03;;;3.63;;
16922;SDS011;8578;50.938;13.556;2022-08-19T11:45:24;5.17;;;4.30;;
16922;SDS011;8578;50.938;13.556;2022-08-19T11:47:52;5.40;;;4.80;;
16922;SDS011;8578;50.938;13.556;2022-08-19T11:50:20;8.77;;;5.60;;
16922;SDS011;8578;50.938;13.556;2022-08-19T11:52:50;4.70;;;4.27;;
16922;SDS011;8578;50.938;13.556;2022-08-19T11:55:20;6.60;;;6.00;;
16922;SDS011;8578;50.938;13.556;2022-08-19T11:57:50;6.33;;;5.07;;
16922;SDS011;8578;50.938;13.556;2022-08-19T12:00:18;8.20;;;6.27;;
16922;SDS011;8578;50.938;13.556;2022-08-19T12:02:46;7.80;;;6.23;;
16922;SDS011;8578;50.938;13.556;2022-08-19T12:05:13;7.10;;;6.37;;
16922;SDS011;8578;50.938;13.556;2022-08-19T12:07:41;8.13;;;6.97;;
16922;SDS011;8578;50.938;13.556;2022-08-19T12:10:11;8.27;;;7.47;;
16922;SDS011;8578;50.938;13.556;2022-08-19T12:12:42;8.43;;;7.20;;
16922;SDS011;8578;50.938;13.556;2022-08-19T12:15:19;8.07;;;6.83;;
16922;SDS011;8578;50.938;13.556;2022-08-19T12:17:46;8.63;;;7.77;;
16922;SDS011;8578;50.938;13.556;2022-08-19T12:20:14;9.87;;;8.57;;
16922;SDS011;8578;50.938;13.556;2022-08-19T12:22:43;10.37;;;8.07;;
16922;SDS011;8578;50.938;13.556;2022-08-19T12:25:12;11.47;;;9.07;;
16922;SDS011;8578;50.938;13.556;2022-08-19T12:27:39;11.27;;;9.43;;
16922;SDS011;8578;50.938;13.556;2022-08-19T12:30:14;14.10;;;9.93;;
16922;SDS011;8578;50.938;13.556;2022-08-19T12:32:42;11.50;;;9.67;;
16922;SDS011;8578;50.938;13.556;2022-08-19T12:35:09;11.90;;;10.03;;
16922;SDS011;8578;50.938;13.556;2022-08-19T12:37:37;12.00;;;10.13;;
16922;SDS011;8578;50.938;13.556;2022-08-19T12:40:05;11.40;;;9.73;;
16922;SDS011;8578;50.938;13.556;2022-08-19T12:42:35;10.07;;;8.97;;
16922;SDS011;8578;50.938;13.556;2022-08-19T12:45:04;11.40;;;9.70;;
16922;SDS011;8578;50.938;13.556;2022-08-19T12:47:33;12.43;;;10.07;;
16922;SDS011;8578;50.938;13.556;2022-08-19T12:50:04;11.90;;;10.03;;
16922;SDS011;8578;50.938;13.556;2022-08-19T12:52:34;11.67;;;9.50;;
16922;SDS011;8578;50.938;13.556;2022-08-19T12:55:03;11.90;;;10.47;;
16922;SDS011;8578;50.938;13.556;2022-08-19T12:57:32;12.97;;;10.73;;
16922;SDS011;8578;50.938;13.556;2022-08-19T13:00:04;14.40;;;11.80;;
16922;SDS011;8578;50.938;13.556;2022-08-19T13:02:36;14.93;;;12.60;;
16922;SDS011;8578;50.938;13.556;2022-08-19T13:05:05;16.67;;;12.60;;
16922;SDS011;8578;50.938;13.556;2022-08-19T13:07:34;15.70;;;12.57;;
16922;SDS011;8578;50.938;13.556;2022-08-19T13:10:02;18.30;;;14.50;;
16922;SDS011;8578;50.938;13.556;2022-08-19T13:12:30;19.60;;;15.27;;
16922;SDS011;8578;50.938;13.556;2022-08-19T13:14:57;21.13;;;15.70;;
16922;SDS011;8578;50.938;13.556;2022-08-19T13:17:27;19.23;;;14.80;;
16922;SDS011;8578;50.938;13.556;2022-08-19T13:19:54;17.40;;;14.60;;
16922;SDS011;8578;50.938;13.556;2022-08-19T13:22:22;20.23;;;16.10;;
16922;SDS011;8578;50.938;13.556;2022-08-19T13:24:50;20.10;;;14.97;;
16922;SDS011;8578;50.938;13.556;2022-08-19T13:27:17;20.33;;;15.90;;
16922;SDS011;8578;50.938;13.556;2022-08-19T13:29:45;25.70;;;18.00;;
16922;SDS011;8578;50.938;13.556;2022-08-19T13:32:31;31.40;;;19.57;;
16922;SDS011;8578;50.938;13.556;2022-08-19T13:35:16;34.43;;;21.83;;
16922;SDS011;8578;50.938;13.556;2022-08-19T13:37:44;32.70;;;22.07;;
16922;SDS011;8578;50.938;13.556;2022-08-19T13:40:13;33.17;;;22.10;;
16922;SDS011;8578;50.938;13.556;2022-08-19T13:42:42;34.73;;;23.20;;
16922;SDS011;8578;50.938;13.556;2022-08-19T13:45:13;38.97;;;24.83;;
16922;SDS011;8578;50.938;13.556;2022-08-19T13:47:44;41.70;;;25.57;;
16922;SDS011;8578;50.938;13.556;2022-08-19T13:50:13;37.67;;;23.10;;
16922;SDS011;8578;50.938;13.556;2022-08-19T13:52:41;39.70;;;26.33;;
16922;SDS011;8578;50.938;13.556;2022-08-19T13:55:09;35.73;;;24.20;;
16922;SDS011;8578;50.938;13.556;2022-08-19T13:57:37;38.90;;;24.33;;
16922;SDS011;8578;50.938;13.556;2022-08-19T14:00:05;38.83;;;23.73;;
16922;SDS011;8578;50.938;13.556;2022-08-19T14:02:34;39.03;;;25.43;;
16922;SDS011;8578;50.938;13.556;2022-08-19T14:05:03;38.43;;;24.27;;
16922;SDS011;8578;50.938;13.556;2022-08-19T14:07:31;36.33;;;23.57;;
16922;SDS011;8578;50.938;13.556;2022-08-19T14:09:58;34.13;;;22.37;;
16922;SDS011;8578;50.938;13.556;2022-08-19T14:12:26;40.03;;;24.53;;
16922;SDS011;8578;50.938;13.556;2022-08-19T14:14:54;39.93;;;24.93;;
16922;SDS011;8578;50.938;13.556;2022-08-19T14:17:21;38.93;;;24.80;;
16922;SDS011;8578;50.938;13.556;2022-08-19T14:19:49;39.83;;;23.27;;
16922;SDS011;8578;50.938;13.556;2022-08-19T14:22:18;36.70;;;24.17;;
16922;SDS011;8578;50.938;13.556;2022-08-19T14:24:47;38.57;;;23.53;;
16922;SDS011;8578;50.938;13.556;2022-08-19T14:27:16;41.27;;;25.10;;
16922;SDS011;8578;50.938;13.556;2022-08-19T14:29:43;40.93;;;25.03;;
16922;SDS011;8578;50.938;13.556;2022-08-19T14:32:11;39.77;;;25.53;;
16922;SDS011;8578;50.938;13.556;2022-08-19T14:34:42;33.87;;;22.63;;
16922;SDS011;8578;50.938;13.556;2022-08-19T14:37:11;35.90;;;23.50;;
16922;SDS011;8578;50.938;13.556;2022-08-19T14:39:41;32.03;;;22.00;;
16922;SDS011;8578;50.938;13.556;2022-08-19T14:42:10;32.20;;;21.90;;